Time;durP1;ratioP1;P1;durP2;ratioP2;P2;SDS_P1;SDS_P2;PMS_P1;PMS_P2;Temp;Humidity;BMP_temperature;BMP_pressure;BME280_temperature;BME280_humidity;BME280_pressure;Samples;Min_cycle;Max_cycle;Signal;HPM_P1;HPM_P2
2021/12/08 00:00:24;;;;;;;31.90;19.90;;;3.00;99.90;;;;;;5026253;28;21285;-75
2021/12/08 00:02:50;;;;;;;31.73;18.83;;;2.90;99.90;;;;;;5023074;28;20619;-76
2021/12/08 00:05:18;;;;;;;29.50;18.43;;;3.00;99.90;;;;;;5026302;28;20612;-75
2021/12/08 00:07:45;;;;;;;32.37;19.80;;;3.10;99.90;;;;;;5026943;28;20240;-75
2021/12/08 00:10:17;;;;;;;31.80;18.50;;;3.10;99.90;;;;;;5029292;28;20657;-75
2021/12/08 00:13:03;;;;;;;38.30;20.90;;;3.00;99.90;;;;;;5029780;28;20965;-75
2021/12/08 00:15:31;;;;;;;34.07;20.17;;;3.00;99.90;;;;;;5029695;28;20646;-76
2021/12/08 00:17:57;;;;;;;30.10;17.90;;;3.00;99.90;;;;;;5028089;28;20780;-75
2021/12/08 00:20:24;;;;;;;32.53;20.10;;;3.00;99.90;;;;;;5027386;28;21034;-74
2021/12/08 00:22:54;;;;;;;35.83;20.07;;;3.00;99.90;;;;;;5029506;28;20193;-75
2021/12/08 00:25:27;;;;;;;32.40;18.27;;;3.00;99.90;;;;;;5027751;28;20615;-76
2021/12/08 00:27:53;;;;;;;31.40;19.90;;;3.00;99.90;;;;;;5027004;28;20643;-76
2021/12/08 00:30:21;;;;;;;36.27;20.50;;;3.10;99.90;;;;;;5027341;28;21229;-76
2021/12/08 00:32:47;;;;;;;32.73;20.37;;;3.00;99.90;;;;;;5029468;28;20266;-75
2021/12/08 00:35:16;;;;;;;36.23;19.83;;;3.00;99.90;;;;;;5028361;28;21038;-75
2021/12/08 00:37:41;;;;;;;31.87;19.13;;;3.00;99.90;;;;;;5025750;28;20315;-76
2021/12/08 00:40:13;;;;;;;36.77;19.03;;;3.00;99.90;;;;;;5044088;28;20726;-76
2021/12/08 00:42:38;;;;;;;30.93;19.07;;;3.10;99.90;;;;;;5028126;28;20189;-75
2021/12/08 00:45:10;;;;;;;31.00;19.13;;;3.10;99.90;;;;;;5025914;28;20624;-76
2021/12/08 00:47:36;;;;;;;35.03;20.77;;;3.20;99.90;;;;;;5026644;28;20247;-76
2021/12/08 00:50:07;;;;;;;32.90;20.10;;;3.00;99.90;;;;;;5020599;28;21029;-74
2021/12/08 00:52:36;;;;;;;32.97;19.43;;;2.90;99.90;;;;;;5028686;28;20677;-76
2021/12/08 00:55:07;;;;;;;36.93;20.77;;;3.00;99.90;;;;;;5029532;28;20730;-75
2021/12/08 00:57:33;;;;;;;37.67;21.50;;;3.00;99.90;;;;;;5028146;28;20654;-76
2021/12/08 01:00:02;;;;;;;36.53;19.87;;;2.90;99.90;;;;;;5030282;28;20635;-75
2021/12/08 01:02:27;;;;;;;32.67;20.00;;;2.80;99.90;;;;;;5029204;28;20642;-76
2021/12/08 01:04:53;;;;;;;32.23;19.90;;;2.90;99.90;;;;;;5029961;28;20631;-75
2021/12/08 01:07:19;;;;;;;31.10;19.13;;;2.90;99.90;;;;;;5029331;28;20227;-76
2021/12/08 01:09:46;;;;;;;35.17;19.70;;;2.90;99.90;;;;;;5030308;28;20213;-75
2021/12/08 01:12:11;;;;;;;40.07;20.57;;;3.00;99.90;;;;;;5027859;28;20201;-76
2021/12/08 01:14:37;;;;;;;32.50;18.70;;;2.80;99.90;;;;;;5029444;28;20655;-76
2021/12/08 01:17:09;;;;;;;34.73;20.23;;;3.00;99.90;;;;;;5027110;28;20243;-75
2021/12/08 01:19:35;;;;;;;37.93;20.57;;;3.00;99.90;;;;;;5029793;28;20196;-76
2021/12/08 01:22:01;;;;;;;36.70;20.33;;;3.10;99.90;;;;;;5027402;28;20613;-76
2021/12/08 01:24:26;;;;;;;31.27;19.40;;;2.80;99.90;;;;;;5029997;28;20192;-77
2021/12/08 01:26:56;;;;;;;33.13;18.60;;;2.80;99.90;;;;;;5035957;28;20624;-75
2021/12/08 01:29:22;;;;;;;31.13;18.70;;;2.80;99.90;;;;;;5021585;28;20658;-76
2021/12/08 01:31:47;;;;;;;32.93;19.17;;;2.90;99.90;;;;;;5030039;28;20623;-76
2021/12/08 01:34:16;;;;;;;33.83;19.93;;;2.90;99.90;;;;;;5028150;28;20944;-75
2021/12/08 01:36:42;;;;;;;30.40;19.57;;;2.90;99.90;;;;;;5027644;28;20224;-75
2021/12/08 01:39:09;;;;;;;30.70;18.17;;;2.90;99.90;;;;;;5029476;28;20730;-75
2021/12/08 01:41:39;;;;;;;30.27;19.03;;;3.00;99.90;;;;;;5029559;28;20680;-76
2021/12/08 01:46:53;;;;;;;31.97;18.83;;;2.90;99.90;;;;;;5027552;28;20618;-76
2021/12/08 01:49:19;;;;;;;33.70;19.93;;;3.00;99.90;;;;;;5028392;28;20701;-75
2021/12/08 01:51:45;;;;;;;32.40;18.47;;;3.00;99.90;;;;;;5023453;28;20729;-75
2021/12/08 01:54:13;;;;;;;31.50;18.90;;;2.90;99.90;;;;;;5027475;28;20783;-75
2021/12/08 01:56:41;;;;;;;33.90;18.93;;;3.00;99.90;;;;;;5026808;28;20216;-75
2021/12/08 01:59:09;;;;;;;26.30;17.70;;;2.90;99.90;;;;;;5042584;28;20651;-76
2021/12/08 02:01:37;;;;;;;30.27;18.50;;;3.00;99.90;;;;;;5024839;28;20644;-75
2021/12/08 02:04:04;;;;;;;31.07;18.23;;;3.10;99.90;;;;;;5026072;28;20611;-75
2021/12/08 02:06:35;;;;;;;28.60;17.93;;;3.10;99.90;;;;;;5027270;28;20639;-76
2021/12/08 02:09:04;;;;;;;27.60;17.60;;;2.90;99.90;;;;;;5026380;28;20720;-76
2021/12/08 02:11:30;;;;;;;29.53;17.20;;;2.90;99.90;;;;;;5026576;28;20642;-76
2021/12/08 02:14:00;;;;;;;30.57;17.33;;;2.90;99.90;;;;;;5027809;28;20639;-76
2021/12/08 02:16:27;;;;;;;30.37;18.57;;;2.90;99.90;;;;;;5026059;28;20274;-75
2021/12/08 02:18:53;;;;;;;30.83;18.17;;;2.80;99.90;;;;;;5027829;28;21234;-75
2021/12/08 02:21:29;;;;;;;27.23;17.73;;;2.90;99.90;;;;;;5032511;28;21093;-76
2021/12/08 02:23:59;;;;;;;28.53;17.33;;;3.00;99.90;;;;;;5030333;28;20622;-75
2021/12/08 02:26:29;;;;;;;32.47;18.73;;;3.00;99.90;;;;;;5028336;28;21076;-75
2021/12/08 02:28:56;;;;;;;32.50;18.70;;;3.10;99.90;;;;;;5047382;28;20650;-76
2021/12/08 02:31:36;;;;;;;27.80;17.30;;;3.00;99.90;;;;;;5031693;28;20765;-74
2021/12/08 02:47:57;;;;;;;27.77;17.13;;;3.10;99.90;;;;;;5020918;28;21338;-75
2021/12/08 02:50:30;;;;;;;27.30;17.20;;;3.10;99.90;;;;;;5026603;28;21342;-76
2021/12/08 02:52:58;;;;;;;27.30;17.77;;;3.00;99.90;;;;;;5030371;28;20664;-75
2021/12/08 02:55:24;;;;;;;27.33;15.67;;;2.90;99.90;;;;;;5031374;28;20701;-74
2021/12/08 02:57:53;;;;;;;25.27;17.13;;;3.00;99.90;;;;;;5044976;28;21292;-75
2021/12/08 03:00:24;;;;;;;28.77;17.40;;;2.90;99.90;;;;;;5032130;28;21248;-75
2021/12/08 03:02:51;;;;;;;32.00;16.40;;;2.90;99.90;;;;;;5029113;28;20706;-75
2021/12/08 03:05:17;;;;;;;25.20;16.43;;;3.00;99.90;;;;;;5027766;28;20654;-74
2021/12/08 03:07:43;;;;;;;26.93;15.90;;;3.00;99.90;;;;;;5031034;28;21285;-75
2021/12/08 03:10:13;;;;;;;26.17;16.27;;;3.00;99.90;;;;;;5030960;28;20722;-74
2021/12/08 03:12:39;;;;;;;26.47;16.27;;;3.10;99.90;;;;;;5031327;28;20200;-74
2021/12/08 03:15:06;;;;;;;24.83;14.43;;;3.20;99.90;;;;;;5025022;28;21234;-75
2021/12/08 03:17:34;;;;;;;26.50;16.10;;;3.30;99.90;;;;;;5028537;28;20639;-76
2021/12/08 03:20:01;;;;;;;24.50;14.90;;;3.20;99.90;;;;;;5042651;28;20646;-75
2021/12/08 03:22:26;;;;;;;27.00;17.57;;;3.20;99.90;;;;;;5032796;28;20608;-75
2021/12/08 03:24:57;;;;;;;23.53;14.63;;;3.10;99.90;;;;;;5029801;28;20615;-74
2021/12/08 03:27:32;;;;;;;25.27;16.03;;;3.10;99.90;;;;;;5031802;28;20267;-76
2021/12/08 03:30:14;;;;;;;23.27;14.93;;;3.10;99.90;;;;;;5034257;28;20634;-75
2021/12/08 03:32:40;;;;;;;25.00;15.13;;;3.10;99.90;;;;;;5031122;28;20592;-75
2021/12/08 03:35:10;;;;;;;28.50;15.80;;;3.10;99.90;;;;;;5032247;28;21575;-74
2021/12/08 03:37:42;;;;;;;26.23;15.03;;;3.10;99.90;;;;;;5027410;28;20635;-75
2021/12/08 03:40:12;;;;;;;23.50;14.97;;;3.00;99.90;;;;;;5030082;28;20784;-75
2021/12/08 03:42:39;;;;;;;20.57;14.30;;;3.00;99.90;;;;;;5023760;28;20608;-76
2021/12/08 03:45:14;;;;;;;23.13;14.70;;;3.10;99.90;;;;;;5026355;28;20626;-75
2021/12/08 03:47:43;;;;;;;24.10;14.50;;;3.10;99.90;;;;;;5021462;28;20718;-76
2021/12/08 03:50:18;;;;;;;22.53;13.90;;;3.20;99.90;;;;;;5025006;28;20674;-75
2021/12/08 03:52:44;;;;;;;22.90;15.03;;;3.20;99.90;;;;;;5029032;28;21385;-75
2021/12/08 03:55:14;;;;;;;20.90;13.80;;;3.20;99.90;;;;;;5028190;28;20675;-74
2021/12/08 03:57:40;;;;;;;22.97;14.80;;;3.20;99.90;;;;;;5029040;28;20221;-75
2021/12/08 04:00:13;;;;;;;25.37;14.77;;;3.30;99.90;;;;;;5029487;28;21236;-76
2021/12/08 04:02:40;;;;;;;22.87;14.93;;;3.40;99.90;;;;;;5027038;28;20637;-75
2021/12/08 04:05:07;;;;;;;27.40;14.60;;;3.40;99.90;;;;;;5030969;28;21119;-75
2021/12/08 04:07:36;;;;;;;20.57;13.10;;;3.50;99.90;;;;;;5028915;28;21227;-74
2021/12/08 04:10:06;;;;;;;20.23;13.40;;;3.50;99.90;;;;;;5029823;28;20649;-74
2021/12/08 04:12:34;;;;;;;20.03;13.50;;;3.50;99.90;;;;;;5033435;28;20613;-75
2021/12/08 04:15:04;;;;;;;22.23;13.73;;;3.50;99.90;;;;;;5034210;28;20701;-75
2021/12/08 04:17:38;;;;;;;21.07;14.33;;;3.40;99.90;;;;;;5026692;28;20631;-75
2021/12/08 04:20:12;;;;;;;19.30;13.40;;;3.40;99.90;;;;;;5031252;28;20807;-75
2021/12/08 04:22:42;;;;;;;20.27;15.03;;;3.40;99.90;;;;;;5050179;28;20649;-75
2021/12/08 04:25:11;;;;;;;22.80;13.83;;;3.40;99.90;;;;;;5030741;28;20668;-76
2021/12/08 04:27:39;;;;;;;18.77;12.97;;;3.40;99.90;;;;;;5029407;28;20639;-75
2021/12/08 04:30:13;;;;;;;21.13;14.27;;;3.40;99.90;;;;;;5029863;28;20650;-75
2021/12/08 04:32:42;;;;;;;21.00;14.50;;;3.30;99.90;;;;;;5020164;28;20644;-74
2021/12/08 04:35:09;;;;;;;23.57;14.20;;;3.30;99.90;;;;;;5027847;28;20666;-74
2021/12/08 04:37:44;;;;;;;19.57;14.33;;;3.20;99.90;;;;;;5027354;28;20631;-74
2021/12/08 04:43:25;;;;;;;20.43;13.50;;;3.40;99.90;;;;;;5029145;28;20642;-73
2021/12/08 05:04:59;;;;;;;19.47;13.63;;;3.00;99.90;;;;;;5030565;28;20626;-74
2021/12/08 05:10:16;;;;;;;20.53;14.20;;;3.10;99.90;;;;;;5028243;28;20650;-74
2021/12/08 05:12:48;;;;;;;20.30;14.10;;;2.90;99.90;;;;;;5027716;28;20619;-74
2021/12/08 05:15:16;;;;;;;22.10;15.30;;;3.00;99.90;;;;;;5025748;28;20658;-75
2021/12/08 05:17:48;;;;;;;20.27;14.43;;;2.90;99.90;;;;;;5022553;28;20789;-74
2021/12/08 05:20:26;;;;;;;20.30;14.93;;;2.90;99.90;;;;;;5028497;28;21252;-75
2021/12/08 05:23:01;;;;;;;23.23;14.90;;;3.00;99.90;;;;;;5028091;28;20631;-74
2021/12/08 05:25:30;;;;;;;23.77;15.13;;;3.00;99.90;;;;;;5025202;28;20646;-74
2021/12/08 05:28:00;;;;;;;20.03;14.67;;;2.90;99.90;;;;;;5026266;28;20667;-74
2021/12/08 05:30:31;;;;;;;22.93;14.67;;;2.90;99.90;;;;;;5021009;28;20623;-75
2021/12/08 05:33:00;;;;;;;21.63;15.50;;;2.80;99.90;;;;;;5027855;28;20651;-75
2021/12/08 05:35:31;;;;;;;23.43;17.00;;;2.80;99.90;;;;;;5036175;28;21018;-74
2021/12/08 05:38:00;;;;;;;25.30;15.60;;;2.70;99.90;;;;;;5025504;28;20664;-74
2021/12/08 05:40:33;;;;;;;23.63;15.50;;;2.50;99.90;;;;;;5024974;28;20616;-74
2021/12/08 05:43:01;;;;;;;26.30;16.30;;;2.60;99.90;;;;;;5029199;28;20612;-75
2021/12/08 05:45:32;;;;;;;22.07;15.53;;;2.50;99.90;;;;;;5026626;28;20630;-74
2021/12/08 05:48:00;;;;;;;23.53;14.80;;;2.60;99.90;;;;;;5025325;28;20639;-74
2021/12/08 05:50:39;;;;;;;25.40;15.83;;;2.70;99.90;;;;;;5027764;28;20646;-74
2021/12/08 05:53:07;;;;;;;23.10;16.03;;;2.70;99.90;;;;;;5027740;28;21284;-74
2021/12/08 05:55:38;;;;;;;25.53;16.60;;;2.50;99.90;;;;;;5031341;28;20643;-75
2021/12/08 05:58:10;;;;;;;24.33;16.70;;;2.40;99.90;;;;;;5030805;28;20759;-74
2021/12/08 06:00:46;;;;;;;24.50;15.43;;;2.40;99.90;;;;;;5028035;28;20619;-74
2021/12/08 06:03:13;;;;;;;23.77;14.30;;;2.50;99.90;;;;;;5030747;28;20589;-74
2021/12/08 06:05:47;;;;;;;25.00;16.40;;;2.60;99.90;;;;;;5028366;28;20642;-73
2021/12/08 06:08:15;;;;;;;24.57;16.70;;;2.60;99.90;;;;;;5030114;28;20653;-73
2021/12/08 06:10:43;;;;;;;27.23;17.53;;;2.60;99.90;;;;;;5024749;28;20627;-73
2021/12/08 06:13:11;;;;;;;22.63;16.13;;;2.50;99.90;;;;;;5028864;28;20607;-74
2021/12/08 06:15:39;;;;;;;28.50;16.57;;;2.40;99.90;;;;;;5018135;28;20735;-74
2021/12/08 06:18:05;;;;;;;27.93;18.20;;;2.50;99.90;;;;;;5015825;28;20730;-75
2021/12/08 06:20:33;;;;;;;26.20;17.50;;;2.40;99.90;;;;;;5025862;28;20710;-75
2021/12/08 06:22:59;;;;;;;24.83;16.70;;;2.50;99.90;;;;;;5029048;28;20604;-74
2021/12/08 06:25:26;;;;;;;25.30;16.23;;;2.50;99.90;;;;;;5019788;28;20638;-76
2021/12/08 06:27:53;;;;;;;24.60;16.50;;;2.50;99.90;;;;;;5029542;28;20232;-77
2021/12/08 06:30:29;;;;;;;24.00;17.63;;;2.50;99.90;;;;;;5015158;28;20678;-75
2021/12/08 06:32:55;;;;;;;25.63;16.53;;;2.50;99.90;;;;;;5039487;28;21002;-75
2021/12/08 06:35:35;;;;;;;26.20;17.47;;;2.40;99.90;;;;;;5025879;28;20630;-76
2021/12/08 06:38:01;;;;;;;25.67;16.77;;;2.20;99.90;;;;;;5045549;28;20667;-75
2021/12/08 06:40:42;;;;;;;24.17;16.70;;;2.40;99.90;;;;;;5016181;28;21421;-75
2021/12/08 06:43:12;;;;;;;27.17;17.90;;;2.30;99.90;;;;;;5041843;28;20661;-75
2021/12/08 06:45:42;;;;;;;24.70;15.73;;;2.20;99.90;;;;;;5023545;28;21213;-76
2021/12/08 06:48:12;;;;;;;26.37;17.00;;;2.30;99.90;;;;;;5019214;28;20650;-76
2021/12/08 06:50:54;;;;;;;26.93;18.10;;;2.30;99.90;;;;;;5024262;28;20654;-75
2021/12/08 06:53:19;;;;;;;26.13;16.60;;;2.20;99.90;;;;;;5031156;28;20602;-76
2021/12/08 06:55:50;;;;;;;29.27;17.37;;;2.20;99.90;;;;;;5027597;28;20647;-76
2021/12/08 06:58:20;;;;;;;30.53;18.03;;;2.30;99.90;;;;;;5024999;28;20205;-76
2021/12/08 07:03:50;;;;;;;27.20;18.73;;;2.30;99.90;;;;;;5021303;28;20615;-75
2021/12/08 07:06:45;;;;;;;28.67;17.20;;;2.30;99.90;;;;;;5015473;28;20986;-76
2021/12/08 07:09:22;;;;;;;29.90;17.93;;;2.30;99.90;;;;;;5039239;28;20642;-75
2021/12/08 07:11:51;;;;;;;29.00;17.47;;;2.40;99.90;;;;;;5024863;28;20639;-76
2021/12/08 07:14:18;;;;;;;28.87;18.50;;;2.30;99.90;;;;;;5027129;28;20651;-76
2021/12/08 07:16:48;;;;;;;29.73;17.73;;;2.30;99.90;;;;;;5017926;28;20725;-75
2021/12/08 07:19:28;;;;;;;30.93;18.03;;;2.30;99.90;;;;;;5020477;28;20654;-76
2021/12/08 07:21:56;;;;;;;31.00;17.93;;;2.40;99.90;;;;;;5025396;28;20595;-76
2021/12/08 07:24:28;;;;;;;30.87;19.23;;;2.30;99.90;;;;;;5030436;28;20626;-75
2021/12/08 07:27:00;;;;;;;29.07;18.43;;;2.30;99.90;;;;;;5021874;28;20738;-75
2021/12/08 07:29:33;;;;;;;31.27;17.57;;;2.30;99.90;;;;;;5028162;28;21234;-76
2021/12/08 07:32:07;;;;;;;28.17;18.67;;;2.10;99.90;;;;;;5028357;28;20596;-74
2021/12/08 07:34:35;;;;;;;28.97;16.53;;;2.10;99.90;;;;;;5027755;28;20655;-75
2021/12/08 07:37:11;;;;;;;28.80;19.00;;;2.20;99.90;;;;;;5025235;28;20769;-75
2021/12/08 07:39:44;;;;;;;27.57;18.00;;;2.20;99.90;;;;;;5025450;28;20662;-76
2021/12/08 07:42:20;;;;;;;29.30;18.53;;;2.30;99.90;;;;;;5021664;28;20637;-74
2021/12/08 07:44:49;;;;;;;29.73;19.00;;;2.30;99.90;;;;;;5024767;28;20634;-75
2021/12/08 07:47:19;;;;;;;26.90;17.10;;;2.40;99.90;;;;;;5026613;28;20639;-75
2021/12/08 07:49:58;;;;;;;25.63;18.10;;;2.40;99.90;;;;;;5027539;28;20650;-74
2021/12/08 07:52:35;;;;;;;27.47;17.27;;;2.30;99.90;;;;;;5030202;28;20674;-75
2021/12/08 07:55:05;;;;;;;30.60;19.50;;;2.40;99.90;;;;;;5021997;28;20647;-76
2021/12/08 07:57:34;;;;;;;29.57;20.33;;;2.50;99.90;;;;;;5023461;28;20689;-75
2021/12/08 08:00:08;;;;;;;28.20;17.30;;;2.40;99.90;;;;;;5026098;28;21226;-76
2021/12/08 08:02:34;;;;;;;27.37;18.17;;;2.40;99.90;;;;;;5028498;28;20659;-76
2021/12/08 08:05:04;;;;;;;28.47;18.53;;;2.40;99.90;;;;;;5027209;28;20730;-75
2021/12/08 08:07:31;;;;;;;28.10;17.47;;;2.40;99.90;;;;;;5026264;28;20228;-75
2021/12/08 08:10:01;;;;;;;25.93;18.27;;;2.40;99.90;;;;;;5028586;28;20746;-75
2021/12/08 08:12:30;;;;;;;24.60;18.00;;;2.50;99.90;;;;;;5028794;28;20624;-75
2021/12/08 08:14:59;;;;;;;27.90;16.97;;;2.40;99.90;;;;;;5026912;28;20699;-75
2021/12/08 08:17:34;;;;;;;23.47;18.33;;;2.50;99.90;;;;;;5025755;28;20632;-76
2021/12/08 08:20:01;;;;;;;25.33;15.83;;;2.60;99.90;;;;;;5025848;28;20728;-75
2021/12/08 08:22:29;;;;;;;27.47;18.33;;;2.60;99.90;;;;;;5025014;28;20612;-75
2021/12/08 08:24:58;;;;;;;26.50;17.30;;;2.50;99.90;;;;;;5026215;28;21087;-75
2021/12/08 08:27:25;;;;;;;23.73;16.73;;;2.50;99.90;;;;;;5024543;28;22992;-75
2021/12/08 08:29:53;;;;;;;27.53;17.90;;;2.60;99.90;;;;;;5026756;28;20739;-75
2021/12/08 08:32:26;;;;;;;23.67;16.37;;;2.60;99.90;;;;;;5026867;28;20616;-75
2021/12/08 08:35:04;;;;;;;24.13;16.67;;;2.60;99.90;;;;;;5026935;28;20639;-75
2021/12/08 08:37:31;;;;;;;26.90;16.73;;;2.60;99.90;;;;;;5021815;28;20631;-75
2021/12/08 08:40:00;;;;;;;24.37;16.87;;;2.50;99.90;;;;;;5024808;28;21112;-74
2021/12/08 08:42:36;;;;;;;24.50;16.80;;;2.50;99.90;;;;;;5022965;28;20635;-75
2021/12/08 08:45:05;;;;;;;23.73;16.27;;;2.50;99.90;;;;;;5024846;28;20579;-76
2021/12/08 08:47:58;;;;;;;25.57;17.23;;;2.60;99.90;;;;;;5043493;28;20658;-75
2021/12/08 08:50:34;;;;;;;22.97;16.73;;;2.60;99.90;;;;;;5019333;28;20698;-74
2021/12/08 08:53:02;;;;;;;27.70;17.67;;;2.50;99.90;;;;;;5025692;28;20591;-75
2021/12/08 08:55:33;;;;;;;25.40;16.97;;;2.50;99.90;;;;;;5026381;28;20746;-75
2021/12/08 08:58:00;;;;;;;23.90;16.37;;;2.50;99.90;;;;;;5027101;28;20642;-75
2021/12/08 09:00:47;;;;;;;26.37;17.07;;;2.60;99.90;;;;;;5032380;28;20935;-76
2021/12/08 09:03:18;;;;;;;22.07;16.87;;;2.80;99.90;;;;;;5027582;28;20636;-76
2021/12/08 09:05:52;;;;;;;24.70;16.30;;;2.70;99.90;;;;;;5035933;28;20627;-75
2021/12/08 09:08:22;;;;;;;26.07;16.40;;;2.70;99.90;;;;;;5035032;28;21018;-75
2021/12/08 09:10:53;;;;;;;23.60;16.60;;;2.70;99.90;;;;;;5030067;28;20765;-75
2021/12/08 09:13:25;;;;;;;25.70;18.13;;;2.80;99.90;;;;;;5027831;28;20612;-76
2021/12/08 09:16:01;;;;;;;22.07;16.27;;;2.80;99.90;;;;;;5033537;28;20630;-75
2021/12/08 09:18:49;;;;;;;24.40;16.70;;;2.80;99.90;;;;;;5032432;28;21059;-75
2021/12/08 09:21:21;;;;;;;26.30;18.40;;;2.70;99.90;;;;;;5029755;28;21062;-76
2021/12/08 09:24:04;;;;;;;22.90;16.00;;;2.80;99.90;;;;;;5030266;28;20631;-76
2021/12/08 09:26:33;;;;;;;23.23;15.53;;;2.90;99.90;;;;;;5024489;28;20635;-76
2021/12/08 09:29:05;;;;;;;23.57;16.60;;;2.90;99.90;;;;;;5032558;28;20636;-75
2021/12/08 09:31:46;;;;;;;22.60;16.33;;;2.90;99.90;;;;;;5025415;28;20762;-75
2021/12/08 09:34:25;;;;;;;23.80;15.47;;;3.00;99.90;;;;;;5026068;28;20648;-76
2021/12/08 09:37:08;;;;;;;22.90;15.50;;;3.00;99.90;;;;;;5027112;28;20627;-75
2021/12/08 09:39:56;;;;;;;27.60;17.30;;;3.00;99.90;;;;;;5042167;28;20643;-75
2021/12/08 09:42:26;;;;;;;24.43;15.93;;;3.00;99.90;;;;;;5026745;28;20611;-75
2021/12/08 09:44:59;;;;;;;21.43;15.23;;;3.10;99.90;;;;;;5024455;28;20611;-75
2021/12/08 09:47:29;;;;;;;22.87;15.33;;;3.20;99.90;;;;;;5025172;28;20689;-75
2021/12/08 09:49:57;;;;;;;23.87;16.10;;;3.20;99.90;;;;;;5019976;28;21079;-76
2021/12/08 09:52:27;;;;;;;23.60;15.90;;;3.20;99.90;;;;;;5028106;28;20628;-76
2021/12/08 09:54:55;;;;;;;23.37;16.27;;;3.30;99.90;;;;;;5026085;28;20662;-75
2021/12/08 09:57:21;;;;;;;23.07;15.93;;;3.30;99.90;;;;;;5025334;28;20667;-76
2021/12/08 09:59:47;;;;;;;20.93;15.17;;;3.30;99.90;;;;;;5043056;28;20674;-75
2021/12/08 10:02:18;;;;;;;21.07;16.00;;;3.30;99.90;;;;;;5025080;28;20620;-76
2021/12/08 10:04:45;;;;;;;22.40;15.23;;;3.20;99.90;;;;;;5020558;28;20615;-76
2021/12/08 10:07:12;;;;;;;22.90;14.83;;;3.30;99.90;;;;;;5024840;28;20642;-76
2021/12/08 10:09:38;;;;;;;22.87;16.27;;;3.30;99.90;;;;;;5026687;28;20738;-75
2021/12/08 10:12:04;;;;;;;21.70;15.30;;;3.40;99.90;;;;;;5022583;28;20662;-75
2021/12/08 10:14:30;;;;;;;23.63;15.17;;;3.40;99.90;;;;;;5022125;28;20643;-75
2021/12/08 10:16:56;;;;;;;22.30;15.50;;;3.50;99.90;;;;;;5020660;28;20635;-75
2021/12/08 10:19:22;;;;;;;21.17;14.83;;;3.50;99.90;;;;;;5040093;28;20643;-75
2021/12/08 10:21:48;;;;;;;19.50;14.07;;;3.50;99.90;;;;;;5023555;28;20189;-76
2021/12/08 10:24:24;;;;;;;21.67;14.57;;;3.60;99.90;;;;;;5024801;28;21113;-76
2021/12/08 10:26:53;;;;;;;19.57;14.60;;;3.70;99.90;;;;;;5019159;28;20649;-75
2021/12/08 10:29:27;;;;;;;21.33;15.23;;;3.50;99.90;;;;;;5035823;28;20639;-76
2021/12/08 10:31:54;;;;;;;23.60;16.27;;;3.60;99.90;;;;;;5024224;28;20650;-76
2021/12/08 10:34:24;;;;;;;24.40;16.27;;;3.70;99.90;;;;;;5020451;28;20655;-76
2021/12/08 10:36:59;;;;;;;21.03;15.10;;;3.70;99.90;;;;;;5018629;28;21006;-76
2021/12/08 10:39:38;;;;;;;23.40;14.27;;;3.70;99.90;;;;;;5027466;28;20650;-76
2021/12/08 10:42:06;;;;;;;19.30;15.17;;;3.70;99.90;;;;;;5024545;28;21064;-76
2021/12/08 10:47:24;;;;;;;19.57;13.93;;;3.80;99.90;;;;;;5025166;28;21149;-76
2021/12/08 10:55:16;;;;;;;23.40;15.50;;;3.70;99.90;;;;;;5026450;28;20672;-76
2021/12/08 10:57:46;;;;;;;21.57;13.97;;;3.70;99.90;;;;;;5025881;28;20653;-76
2021/12/08 11:00:18;;;;;;;20.47;14.43;;;3.80;99.90;;;;;;5024648;28;20884;-76
2021/12/08 11:02:45;;;;;;;19.67;14.30;;;3.70;99.90;;;;;;5026965;28;20603;-76
2021/12/08 11:05:31;;;;;;;18.80;13.03;;;3.60;99.90;;;;;;5021854;28;20633;-76
2021/12/08 11:08:02;;;;;;;21.20;15.03;;;3.80;99.90;;;;;;5024807;28;20645;-76
2021/12/08 11:10:30;;;;;;;19.60;13.70;;;3.70;99.90;;;;;;5025045;28;21266;-76
2021/12/08 11:12:58;;;;;;;20.40;13.90;;;3.80;99.90;;;;;;5025135;28;20615;-75
2021/12/08 11:15:26;;;;;;;19.30;13.63;;;3.80;99.90;;;;;;5022745;28;21249;-75
2021/12/08 11:18:18;;;;;;;21.00;14.47;;;3.80;99.90;;;;;;5028640;28;21278;-76
2021/12/08 11:21:16;;;;;;;20.20;14.20;;;3.80;99.90;;;;;;5027319;28;21233;-76
2021/12/08 11:23:49;;;;;;;24.43;16.37;;;3.90;99.90;;;;;;5027122;28;20721;-76
2021/12/08 11:26:17;;;;;;;18.10;13.50;;;3.70;99.90;;;;;;5026671;28;20706;-75
2021/12/08 11:28:45;;;;;;;22.93;16.63;;;3.70;99.90;;;;;;5030501;28;20643;-76
2021/12/08 11:31:15;;;;;;;21.60;14.77;;;3.70;99.90;;;;;;5043461;28;20702;-75
2021/12/08 11:33:48;;;;;;;21.70;14.90;;;3.80;99.90;;;;;;5026999;28;20608;-75
2021/12/08 11:36:25;;;;;;;19.00;14.60;;;3.80;99.90;;;;;;5028707;28;20627;-75
2021/12/08 11:38:51;;;;;;;20.37;14.70;;;3.90;99.90;;;;;;5030503;28;20666;-75
2021/12/08 11:41:34;;;;;;;20.10;14.37;;;3.90;99.90;;;;;;5029102;28;20734;-76
2021/12/08 11:44:01;;;;;;;22.90;15.43;;;4.00;99.90;;;;;;5026673;28;20631;-75
2021/12/08 11:46:28;;;;;;;20.40;14.83;;;4.00;99.90;;;;;;5029344;28;20646;-76
2021/12/08 11:49:03;;;;;;;19.40;13.53;;;4.00;99.90;;;;;;5022074;28;20655;-75
2021/12/08 11:51:50;;;;;;;20.50;14.33;;;4.10;99.90;;;;;;5022699;28;20630;-75
2021/12/08 11:54:27;;;;;;;19.17;13.33;;;4.10;99.90;;;;;;5028998;28;20651;-75
2021/12/08 11:57:10;;;;;;;17.67;14.40;;;4.20;99.90;;;;;;5020458;28;20638;-76
2021/12/08 11:59:45;;;;;;;19.07;14.40;;;4.20;99.90;;;;;;5026342;28;21204;-76
2021/12/08 12:02:13;;;;;;;21.93;15.80;;;4.10;99.90;;;;;;5042087;28;20626;-77
2021/12/08 12:04:43;;;;;;;18.37;13.90;;;3.90;99.90;;;;;;5028488;28;21300;-75
2021/12/08 12:07:13;;;;;;;18.60;14.03;;;3.90;99.90;;;;;;5020024;28;20781;-75
2021/12/08 12:09:39;;;;;;;18.50;13.97;;;4.00;99.90;;;;;;5026004;28;20631;-75
2021/12/08 12:12:06;;;;;;;21.77;13.90;;;4.00;99.90;;;;;;5024611;28;20619;-77
2021/12/08 12:14:31;;;;;;;20.33;14.33;;;4.00;99.90;;;;;;5024892;28;20655;-75
2021/12/08 12:16:57;;;;;;;19.07;13.67;;;3.90;99.90;;;;;;5039917;28;20662;-76
2021/12/08 12:19:26;;;;;;;19.70;13.23;;;3.90;99.90;;;;;;5026552;28;20623;-75
2021/12/08 12:22:00;;;;;;;20.40;13.80;;;4.00;99.90;;;;;;5027445;28;20195;-75
2021/12/08 12:24:52;;;;;;;20.60;14.57;;;4.10;99.90;;;;;;5021420;28;20679;-76
2021/12/08 12:27:24;;;;;;;21.00;13.93;;;4.20;99.90;;;;;;5026365;28;20646;-75
2021/12/08 12:30:09;;;;;;;20.13;13.87;;;4.20;99.90;;;;;;5027823;28;20646;-75
2021/12/08 12:32:48;;;;;;;17.73;13.63;;;4.20;99.90;;;;;;5026238;28;20710;-75
2021/12/08 12:35:28;;;;;;;19.50;13.63;;;4.20;99.90;;;;;;5058058;28;20666;-74
2021/12/08 12:38:04;;;;;;;18.70;13.63;;;4.20;99.90;;;;;;5023333;28;20624;-76
2021/12/08 12:40:40;;;;;;;19.63;13.97;;;4.30;99.90;;;;;;5026746;28;20607;-75
2021/12/08 12:43:08;;;;;;;17.40;13.60;;;4.20;99.90;;;;;;5038747;28;20643;-75
2021/12/08 12:45:46;;;;;;;20.80;14.43;;;4.30;99.90;;;;;;5021810;28;20619;-75
2021/12/08 12:48:15;;;;;;;20.60;14.27;;;4.40;99.90;;;;;;5020364;28;20631;-76
2021/12/08 12:51:05;;;;;;;18.90;14.67;;;4.40;99.90;;;;;;5028828;28;20697;-76
2021/12/08 12:53:33;;;;;;;22.97;15.80;;;4.30;99.90;;;;;;5028015;28;20632;-77
2021/12/08 12:55:59;;;;;;;23.50;15.20;;;4.30;99.90;;;;;;5027804;28;20640;-75
2021/12/08 12:58:43;;;;;;;20.47;15.37;;;4.30;99.90;;;;;;5027262;28;20639;-76
2021/12/08 13:01:15;;;;;;;19.53;13.73;;;4.30;99.90;;;;;;5022090;28;20191;-75
2021/12/08 13:03:43;;;;;;;18.60;13.73;;;4.30;99.90;;;;;;5028037;28;20630;-76
2021/12/08 13:06:13;;;;;;;20.30;13.97;;;4.30;99.90;;;;;;5022282;28;21814;-75
2021/12/08 13:08:49;;;;;;;22.97;15.30;;;4.30;99.90;;;;;;5021073;28;20849;-76
2021/12/08 13:11:34;;;;;;;19.47;14.40;;;4.40;99.90;;;;;;5027795;28;20622;-75
2021/12/08 13:14:03;;;;;;;19.23;14.07;;;4.40;99.90;;;;;;5026573;28;21069;-75
2021/12/08 13:16:35;;;;;;;22.10;14.17;;;4.40;99.90;;;;;;5018370;28;20627;-75
2021/12/08 13:19:06;;;;;;;19.10;15.00;;;4.30;99.90;;;;;;5037903;28;21295;-75
2021/12/08 13:21:41;;;;;;;19.83;14.30;;;4.10;99.90;;;;;;5035679;28;21568;-75
2021/12/08 13:24:43;;;;;;;20.60;14.57;;;4.20;99.90;;;;;;5022253;28;20603;-74
2021/12/08 13:27:12;;;;;;;23.27;15.20;;;4.20;99.90;;;;;;5023321;28;20730;-75
2021/12/08 13:29:42;;;;;;;20.53;14.50;;;4.30;99.90;;;;;;5035128;28;21249;-75
2021/12/08 13:32:27;;;;;;;19.80;14.37;;;4.30;99.90;;;;;;5026524;28;20609;-75
2021/12/08 13:35:05;;;;;;;21.20;15.97;;;4.30;99.90;;;;;;5018990;28;20900;-74
2021/12/08 13:37:31;;;;;;;23.13;16.00;;;4.30;99.90;;;;;;5023552;28;20637;-75
2021/12/08 13:40:08;;;;;;;20.90;15.30;;;4.20;99.90;;;;;;5024250;28;20635;-75
2021/12/08 13:42:54;;;;;;;22.53;14.50;;;4.10;99.90;;;;;;5019697;28;20335;-75
2021/12/08 13:45:20;;;;;;;19.43;14.60;;;4.20;99.90;;;;;;5022625;28;20611;-75
2021/12/08 13:47:48;;;;;;;22.30;14.47;;;4.30;99.90;;;;;;5020796;28;20654;-75